sensor_id;sensor_type;location;lat;lon;timestamp;pressure;altitude;pressure_sealevel;temperature;humidity
56594;BME280;42474;51.660;5.824;2022-09-17T00:03:23;101240.0;;;12.1;80.5
56594;BME280;42474;51.660;5.824;2022-09-17T00:08:23;101230.0;;;12.1;80.5
56594;BME280;42474;51.660;5.824;2022-09-17T00:13:23;101250.0;;;12.1;80.5
56594;BME280;42474;51.660;5.824;2022-09-17T00:18:23;101260.0;;;12.1;80.5
56594;BME280;42474;51.660;5.824;2022-09-17T00:23:23;101260.0;;;12.1;80.5
56594;BME280;42474;51.660;5.824;2022-09-17T00:28:24;101270.0;;;12.1;80.5
56594;BME280;42474;51.660;5.824;2022-09-17T00:33:23;101270.0;;;12.1;80.5
56594;BME280;42474;51.660;5.824;2022-09-17T00:38:23;101270.0;;;12.1;81.0
56594;BME280;42474;51.660;5.824;2022-09-17T00:43:32;101280.0;;;12.1;81.0
56594;BME280;42474;51.660;5.824;2022-09-17T00:48:23;101280.0;;;12.2;81.0
56594;BME280;42474;51.660;5.824;2022-09-17T00:53:23;101290.0;;;12.2;81.0
56594;BME280;42474;51.660;5.824;2022-09-17T00:58:25;101290.0;;;12.2;81.0
56594;BME280;42474;51.660;5.824;2022-09-17T01:03:23;101280.0;;;12.2;80.5
56594;BME280;42474;51.660;5.824;2022-09-17T01:08:50;101280.0;;;12.2;81.0
56594;BME280;42474;51.660;5.824;2022-09-17T01:14:48;101290.0;;;12.2;81.0
56594;BME280;42474;51.660;5.824;2022-09-17T01:20:41;101290.0;;;12.3;81.0
56594;BME280;42474;51.660;5.824;2022-09-17T01:26:49;101300.0;;;12.3;81.0
56594;BME280;42474;51.660;5.824;2022-09-17T01:32:22;101300.0;;;12.3;81.0
56594;BME280;42474;51.660;5.824;2022-09-17T01:36:46;101300.0;;;12.2;81.0
56594;BME280;42474;51.660;5.824;2022-09-17T01:40:52;101310.0;;;12.2;81.0
56594;BME280;42474;51.660;5.824;2022-09-17T01:44:31;101310.0;;;12.2;81.0
56594;BME280;42474;51.660;5.824;2022-09-17T01:48:26;101310.0;;;12.2;81.0
56594;BME280;42474;51.660;5.824;2022-09-17T01:53:34;101320.0;;;12.2;81.0
56594;BME280;42474;51.660;5.824;2022-09-17T01:58:26;101310.0;;;12.1;81.0
56594;BME280;42474;51.660;5.824;2022-09-17T02:03:26;101310.0;;;12.1;81.0
56594;BME280;42474;51.660;5.824;2022-09-17T02:08:25;101310.0;;;12.0;81.0
56594;BME280;42474;51.660;5.824;2022-09-17T02:13:28;101320.0;;;12.0;81.0
56594;BME280;42474;51.660;5.824;2022-09-17T02:18:53;101320.0;;;12.0;81.0
56594;BME280;42474;51.660;5.824;2022-09-17T02:23:26;101330.0;;;11.9;81.0
56594;BME280;42474;51.660;5.824;2022-09-17T02:28:32;101320.0;;;11.9;81.0
56594;BME280;42474;51.660;5.824;2022-09-17T02:33:25;101330.0;;;11.9;81.0
56594;BME280;42474;51.660;5.824;2022-09-17T02:38:27;101330.0;;;11.9;81.0
56594;BME280;42474;51.660;5.824;2022-09-17T02:43:59;101330.0;;;11.9;81.0
56594;BME280;42474;51.660;5.824;2022-09-17T02:49:44;101330.0;;;11.9;81.0
56594;BME280;42474;51.660;5.824;2022-09-17T02:55:08;101340.0;;;11.9;81.0
56594;BME280;42474;51.660;5.824;2022-09-17T02:59:17;101340.0;;;11.9;81.0
56594;BME280;42474;51.660;5.824;2022-09-17T03:03:33;101340.0;;;11.9;81.0
56594;BME280;42474;51.660;5.824;2022-09-17T03:08:28;101340.0;;;11.9;81.5
56594;BME280;42474;51.660;5.824;2022-09-17T03:13:24;101340.0;;;11.9;81.0
56594;BME280;42474;51.660;5.824;2022-09-17T03:18:23;101340.0;;;11.9;81.0
56594;BME280;42474;51.660;5.824;2022-09-17T03:23:23;101340.0;;;11.9;81.0
56594;BME280;42474;51.660;5.824;2022-09-17T03:28:23;101330.0;;;11.9;81.0
56594;BME280;42474;51.660;5.824;2022-09-17T03:33:23;101330.0;;;11.9;81.0
56594;BME280;42474;51.660;5.824;2022-09-17T03:38:23;101330.0;;;11.9;81.0
56594;BME280;42474;51.660;5.824;2022-09-17T03:43:23;101330.0;;;11.8;81.0
56594;BME280;42474;51.660;5.824;2022-09-17T03:48:23;101330.0;;;11.8;81.0
56594;BME280;42474;51.660;5.824;2022-09-17T03:53:23;101340.0;;;11.8;81.5
56594;BME280;42474;51.660;5.824;2022-09-17T03:58:24;101340.0;;;11.8;81.5
56594;BME280;42474;51.660;5.824;2022-09-17T04:03:24;101330.0;;;11.8;81.5
56594;BME280;42474;51.660;5.824;2022-09-17T04:08:23;101330.0;;;11.9;81.5
56594;BME280;42474;51.660;5.824;2022-09-17T04:13:23;101340.0;;;11.9;81.0
56594;BME280;42474;51.660;5.824;2022-09-17T04:18:23;101340.0;;;11.9;81.0
56594;BME280;42474;51.660;5.824;2022-09-17T04:23:23;101350.0;;;11.9;81.0
56594;BME280;42474;51.660;5.824;2022-09-17T04:28:23;101350.0;;;11.9;81.0
56594;BME280;42474;51.660;5.824;2022-09-17T04:33:23;101360.0;;;12.0;80.5
56594;BME280;42474;51.660;5.824;2022-09-17T04:38:23;101360.0;;;11.9;80.5
56594;BME280;42474;51.660;5.824;2022-09-17T04:43:23;101360.0;;;11.9;80.0
56594;BME280;42474;51.660;5.824;2022-09-17T04:48:23;101370.0;;;11.8;80.0
56594;BME280;42474;51.660;5.824;2022-09-17T04:53:23;101360.0;;;11.8;80.0
56594;BME280;42474;51.660;5.824;2022-09-17T04:58:23;101360.0;;;11.8;80.0
56594;BME280;42474;51.660;5.824;2022-09-17T05:03:24;101360.0;;;11.7;80.0
56594;BME280;42474;51.660;5.824;2022-09-17T05:08:23;101360.0;;;11.7;80.0
56594;BME280;42474;51.660;5.824;2022-09-17T05:13:23;101360.0;;;11.7;80.0
56594;BME280;42474;51.660;5.824;2022-09-17T05:18:24;101370.0;;;11.6;80.0
56594;BME280;42474;51.660;5.824;2022-09-17T05:23:23;101370.0;;;11.6;80.0
56594;BME280;42474;51.660;5.824;2022-09-17T05:28:23;101390.0;;;11.6;80.0
56594;BME280;42474;51.660;5.824;2022-09-17T05:33:24;101380.0;;;11.6;80.5
56594;BME280;42474;51.660;5.824;2022-09-17T05:38:24;101380.0;;;11.6;80.5
56594;BME280;42474;51.660;5.824;2022-09-17T05:43:23;101390.0;;;11.6;80.5
56594;BME280;42474;51.660;5.824;2022-09-17T05:48:23;101380.0;;;11.6;80.5
56594;BME280;42474;51.660;5.824;2022-09-17T05:53:23;101390.0;;;11.7;80.5
56594;BME280;42474;51.660;5.824;2022-09-17T05:58:24;101390.0;;;11.8;80.5
56594;BME280;42474;51.660;5.824;2022-09-17T06:03:23;101410.0;;;11.9;80.5
56594;BME280;42474;51.660;5.824;2022-09-17T06:08:26;101410.0;;;12.0;80.5
56594;BME280;42474;51.660;5.824;2022-09-17T06:13:23;101410.0;;;12.1;80.5
56594;BME280;42474;51.660;5.824;2022-09-17T06:18:23;101410.0;;;12.6;82.5
56594;BME280;42474;51.660;5.824;2022-09-17T06:23:24;101420.0;;;13.7;82.5
56594;BME280;42474;51.660;5.824;2022-09-17T06:28:24;101420.0;;;14.4;79.5
56594;BME280;42474;51.660;5.824;2022-09-17T06:33:23;101410.0;;;15.3;76.5
56594;BME280;42474;51.660;5.824;2022-09-17T06:38:23;101410.0;;;16.1;72.5
56594;BME280;42474;51.660;5.824;2022-09-17T06:43:24;101420.0;;;16.4;68.5
56594;BME280;42474;51.660;5.824;2022-09-17T06:48:25;101410.0;;;16.0;66.5
56594;BME280;42474;51.660;5.824;2022-09-17T06:53:23;101420.0;;;15.5;68.0
56594;BME280;42474;51.660;5.824;2022-09-17T06:58:24;101410.0;;;15.6;69.0
56594;BME280;42474;51.660;5.824;2022-09-17T07:03:23;101420.0;;;15.7;68.0
56594;BME280;42474;51.660;5.824;2022-09-17T07:08:24;101420.0;;;15.6;67.5
56594;BME280;42474;51.660;5.824;2022-09-17T07:13:24;101430.0;;;15.3;67.0
56594;BME280;42474;51.660;5.824;2022-09-17T07:18:24;101430.0;;;15.1;68.0
56594;BME280;42474;51.660;5.824;2022-09-17T07:23:25;101430.0;;;15.2;69.0
56594;BME280;42474;51.660;5.824;2022-09-17T07:28:24;101430.0;;;15.4;68.0
56594;BME280;42474;51.660;5.824;2022-09-17T07:33:25;101430.0;;;15.5;67.5
56594;BME280;42474;51.660;5.824;2022-09-17T07:38:24;101430.0;;;15.5;67.5
56594;BME280;42474;51.660;5.824;2022-09-17T07:43:24;101430.0;;;15.6;67.0
56594;BME280;42474;51.660;5.824;2022-09-17T07:48:24;101420.0;;;15.6;66.5
56594;BME280;42474;51.660;5.824;2022-09-17T07:53:24;101430.0;;;15.6;67.0
56594;BME280;42474;51.660;5.824;2022-09-17T07:58:28;101430.0;;;15.6;66.5
56594;BME280;42474;51.660;5.824;2022-09-17T08:03:23;101430.0;;;15.6;66.5
56594;BME280;42474;51.660;5.824;2022-09-17T08:08:23;101430.0;;;15.8;66.5
56594;BME280;42474;51.660;5.824;2022-09-17T08:13:23;101430.0;;;15.8;65.5
56594;BME280;42474;51.660;5.824;2022-09-17T08:18:23;101430.0;;;15.8;65.0
56594;BME280;42474;51.660;5.824;2022-09-17T08:23:24;101440.0;;;15.8;65.0
56594;BME280;42474;51.660;5.824;2022-09-17T08:28:25;101430.0;;;16.0;65.0
56594;BME280;42474;51.660;5.824;2022-09-17T08:33:24;101430.0;;;16.1;64.5
56594;BME280;42474;51.660;5.824;2022-09-17T08:38:24;101430.0;;;16.3;64.5
56594;BME280;42474;51.660;5.824;2022-09-17T08:43:24;101420.0;;;16.3;63.0
56594;BME280;42474;51.660;5.824;2022-09-17T08:48:24;101440.0;;;16.3;63.5
56594;BME280;42474;51.660;5.824;2022-09-17T08:53:48;101430.0;;;16.3;63.5
56594;BME280;42474;51.660;5.824;2022-09-17T08:59:02;101430.0;;;16.4;63.0
56594;BME280;42474;51.660;5.824;2022-09-17T09:04:29;101420.0;;;16.4;63.5
56594;BME280;42474;51.660;5.824;2022-09-17T09:08:35;101430.0;;;16.5;63.0
56594;BME280;42474;51.660;5.824;2022-09-17T09:13:27;101430.0;;;16.7;62.5
56594;BME280;42474;51.660;5.824;2022-09-17T09:18:30;101440.0;;;16.7;62.0
56594;BME280;42474;51.660;5.824;2022-09-17T09:23:28;101440.0;;;16.8;61.5
56594;BME280;42474;51.660;5.824;2022-09-17T09:28:46;101440.0;;;17.0;61.0
56594;BME280;42474;51.660;5.824;2022-09-17T09:33:32;101440.0;;;17.2;60.5
56594;BME280;42474;51.660;5.824;2022-09-17T09:38:43;101420.0;;;17.3;60.0
56594;BME280;42474;51.660;5.824;2022-09-17T09:43:30;101420.0;;;17.2;59.5
56594;BME280;42474;51.660;5.824;2022-09-17T09:49:04;101440.0;;;16.9;59.0
56594;BME280;42474;51.660;5.824;2022-09-17T09:54:25;101470.0;;;16.6;60.0
56594;BME280;42474;51.660;5.824;2022-09-17T09:58:40;101510.0;;;16.2;62.0
56594;BME280;42474;51.660;5.824;2022-09-17T10:03:26;101490.0;;;15.3;63.5
56594;BME280;42474;51.660;5.824;2022-09-17T10:08:24;101480.0;;;14.7;65.5
56594;BME280;42474;51.660;5.824;2022-09-17T10:13:24;101460.0;;;14.4;67.5
56594;BME280;42474;51.660;5.824;2022-09-17T10:18:24;101470.0;;;14.3;69.5
56594;BME280;42474;51.660;5.824;2022-09-17T10:23:25;101460.0;;;14.5;71.5
56594;BME280;42474;51.660;5.824;2022-09-17T10:28:46;101460.0;;;14.8;71.5
56594;BME280;42474;51.660;5.824;2022-09-17T10:33:31;101440.0;;;14.9;72.0
56594;BME280;42474;51.660;5.824;2022-09-17T10:38:34;101440.0;;;15.1;72.0
56594;BME280;42474;51.660;5.824;2022-09-17T10:43:24;101430.0;;;15.4;71.5
56594;BME280;42474;51.660;5.824;2022-09-17T10:48:25;101430.0;;;15.5;71.0
56594;BME280;42474;51.660;5.824;2022-09-17T10:53:25;101440.0;;;15.7;70.5
56594;BME280;42474;51.660;5.824;2022-09-17T10:58:53;101440.0;;;15.9;68.0
56594;BME280;42474;51.660;5.824;2022-09-17T11:04:25;101430.0;;;16.1;67.0
56594;BME280;42474;51.660;5.824;2022-09-17T11:09:36;101420.0;;;16.3;65.5
56594;BME280;42474;51.660;5.824;2022-09-17T11:14:49;101420.0;;;16.3;64.5
56594;BME280;42474;51.660;5.824;2022-09-17T11:19:31;101420.0;;;16.3;64.0
56594;BME280;42474;51.660;5.824;2022-09-17T11:25:24;101420.0;;;16.4;63.5
56594;BME280;42474;51.660;5.824;2022-09-17T11:30:04;101420.0;;;16.3;63.0
56594;BME280;42474;51.660;5.824;2022-09-17T11:34:36;101420.0;;;16.1;63.0
56594;BME280;42474;51.660;5.824;2022-09-17T11:38:28;101430.0;;;15.7;64.5
56594;BME280;42474;51.660;5.824;2022-09-17T11:43:27;101410.0;;;15.4;67.0
56594;BME280;42474;51.660;5.824;2022-09-17T11:48:26;101410.0;;;15.5;69.0
56594;BME280;42474;51.660;5.824;2022-09-17T11:53:36;101410.0;;;15.7;69.5
56594;BME280;42474;51.660;5.824;2022-09-17T11:58:41;101410.0;;;16.0;69.0
56594;BME280;42474;51.660;5.824;2022-09-17T12:03:27;101390.0;;;16.4;69.5
56594;BME280;42474;51.660;5.824;2022-09-17T12:08:41;101380.0;;;16.7;67.5
56594;BME280;42474;51.660;5.824;2022-09-17T12:13:29;101390.0;;;16.8;65.5
56594;BME280;42474;51.660;5.824;2022-09-17T12:18:54;101380.0;;;16.7;64.0
56594;BME280;42474;51.660;5.824;2022-09-17T12:23:37;101370.0;;;16.8;64.0
56594;BME280;42474;51.660;5.824;2022-09-17T12:28:43;101370.0;;;17.0;62.5
56594;BME280;42474;51.660;5.824;2022-09-17T12:33:27;101380.0;;;17.1;61.5
56594;BME280;42474;51.660;5.824;2022-09-17T12:39:15;101390.0;;;17.0;60.0
56594;BME280;42474;51.660;5.824;2022-09-17T12:43:58;101390.0;;;17.0;59.0
56594;BME280;42474;51.660;5.824;2022-09-17T12:50:20;101370.0;;;16.9;60.0
56594;BME280;42474;51.660;5.824;2022-09-17T12:55:20;101370.0;;;16.9;60.0
56594;BME280;42474;51.660;5.824;2022-09-17T12:59:52;101370.0;;;16.8;60.5
56594;BME280;42474;51.660;5.824;2022-09-17T13:03:39;101370.0;;;17.1;60.5
56594;BME280;42474;51.660;5.824;2022-09-17T13:09:58;101380.0;;;17.1;59.0
56594;BME280;42474;51.660;5.824;2022-09-17T13:14:53;101370.0;;;17.0;58.5
56594;BME280;42474;51.660;5.824;2022-09-17T13:18:54;101380.0;;;17.2;59.5
56594;BME280;42474;51.660;5.824;2022-09-17T13:23:30;101370.0;;;17.4;58.5
56594;BME280;42474;51.660;5.824;2022-09-17T13:28:35;101390.0;;;17.3;57.0
56594;BME280;42474;51.660;5.824;2022-09-17T13:33:53;101380.0;;;17.1;58.0
56594;BME280;42474;51.660;5.824;2022-09-17T13:38:24;101380.0;;;17.2;58.5
56594;BME280;42474;51.660;5.824;2022-09-17T13:43:24;101380.0;;;17.5;58.5
56594;BME280;42474;51.660;5.824;2022-09-17T13:48:28;101370.0;;;17.7;58.0
56594;BME280;42474;51.660;5.824;2022-09-17T13:53:25;101380.0;;;17.8;57.0
56594;BME280;42474;51.660;5.824;2022-09-17T13:58:30;101380.0;;;17.7;56.5
56594;BME280;42474;51.660;5.824;2022-09-17T14:03:54;101400.0;;;17.6;57.0
56594;BME280;42474;51.660;5.824;2022-09-17T14:08:28;101390.0;;;17.4;58.0
56594;BME280;42474;51.660;5.824;2022-09-17T14:13:42;101400.0;;;17.1;58.5
56594;BME280;42474;51.660;5.824;2022-09-17T14:18:35;101410.0;;;16.7;59.5
56594;BME280;42474;51.660;5.824;2022-09-17T14:23:24;101410.0;;;16.6;60.5
56594;BME280;42474;51.660;5.824;2022-09-17T14:28:49;101400.0;;;16.6;60.0
56594;BME280;42474;51.660;5.824;2022-09-17T14:33:29;101400.0;;;16.5;59.5
56594;BME280;42474;51.660;5.824;2022-09-17T14:38:32;101410.0;;;16.3;59.0
56594;BME280;42474;51.660;5.824;2022-09-17T14:43:45;101410.0;;;16.2;59.0
56594;BME280;42474;51.660;5.824;2022-09-17T14:48:33;101400.0;;;16.1;60.0
56594;BME280;42474;51.660;5.824;2022-09-17T14:53:24;101410.0;;;16.3;60.5
56594;BME280;42474;51.660;5.824;2022-09-17T14:58:40;101410.0;;;16.7;60.5
56594;BME280;42474;51.660;5.824;2022-09-17T15:03:24;101410.0;;;16.8;59.0
56594;BME280;42474;51.660;5.824;2022-09-17T15:08:25;101410.0;;;16.7;58.5
56594;BME280;42474;51.660;5.824;2022-09-17T15:13:27;101410.0;;;16.6;58.5
56594;BME280;42474;51.660;5.824;2022-09-17T15:18:30;101410.0;;;16.7;58.0
56594;BME280;42474;51.660;5.824;2022-09-17T15:23:34;101400.0;;;16.8;58.0
56594;BME280;42474;51.660;5.824;2022-09-17T15:28:31;101410.0;;;17.0;56.5
56594;BME280;42474;51.660;5.824;2022-09-17T15:33:31;101400.0;;;17.0;56.5
56594;BME280;42474;51.660;5.824;2022-09-17T15:38:29;101410.0;;;17.0;55.5
56594;BME280;42474;51.660;5.824;2022-09-17T15:43:27;101410.0;;;16.8;55.0
56594;BME280;42474;51.660;5.824;2022-09-17T15:48:34;101410.0;;;16.6;55.5
56594;BME280;42474;51.660;5.824;2022-09-17T15:53:25;101410.0;;;16.5;55.5
56594;BME280;42474;51.660;5.824;2022-09-17T15:58:33;101420.0;;;16.5;56.0
56594;BME280;42474;51.660;5.824;2022-09-17T16:04:15;101410.0;;;16.5;56.0
56594;BME280;42474;51.660;5.824;2022-09-17T16:08:32;101410.0;;;16.5;56.0
56594;BME280;42474;51.660;5.824;2022-09-17T16:13:24;101410.0;;;16.6;56.0
56594;BME280;42474;51.660;5.824;2022-09-17T16:18:24;101390.0;;;16.7;56.0
56594;BME280;42474;51.660;5.824;2022-09-17T16:23:24;101400.0;;;16.7;55.5
56594;BME280;42474;51.660;5.824;2022-09-17T16:28:24;101410.0;;;16.7;55.5
56594;BME280;42474;51.660;5.824;2022-09-17T16:33:24;101410.0;;;16.7;55.5
56594;BME280;42474;51.660;5.824;2022-09-17T16:38:24;101420.0;;;16.7;55.0
56594;BME280;42474;51.660;5.824;2022-09-17T16:43:24;101410.0;;;16.7;54.0
56594;BME280;42474;51.660;5.824;2022-09-17T16:48:24;101430.0;;;16.7;53.5
56594;BME280;42474;51.660;5.824;2022-09-17T16:53:24;101420.0;;;16.5;53.0
56594;BME280;42474;51.660;5.824;2022-09-17T16:58:24;101430.0;;;16.4;53.5
56594;BME280;42474;51.660;5.824;2022-09-17T17:03:24;101430.0;;;16.3;53.5
56594;BME280;42474;51.660;5.824;2022-09-17T17:08:24;101430.0;;;16.2;53.5
56594;BME280;42474;51.660;5.824;2022-09-17T17:13:24;101430.0;;;16.1;54.0
56594;BME280;42474;51.660;5.824;2022-09-17T17:18:24;101440.0;;;16.0;54.0
56594;BME280;42474;51.660;5.824;2022-09-17T17:23:24;101450.0;;;15.9;54.0
56594;BME280;42474;51.660;5.824;2022-09-17T17:28:24;101450.0;;;15.8;53.5
56594;BME280;42474;51.660;5.824;2022-09-17T17:33:24;101460.0;;;15.7;53.5
56594;BME280;42474;51.660;5.824;2022-09-17T17:38:24;101470.0;;;15.6;53.0
56594;BME280;42474;51.660;5.824;2022-09-17T17:43:24;101490.0;;;15.5;54.5
56594;BME280;42474;51.660;5.824;2022-09-17T17:48:24;101500.0;;;15.1;56.5
56594;BME280;42474;51.660;5.824;2022-09-17T17:53:24;101510.0;;;14.7;58.5
56594;BME280;42474;51.660;5.824;2022-09-17T17:58:24;101490.0;;;14.4;60.0
56594;BME280;42474;51.660;5.824;2022-09-17T18:03:24;101500.0;;;14.1;60.5
56594;BME280;42474;51.660;5.824;2022-09-17T18:08:24;101490.0;;;13.9;62.0
56594;BME280;42474;51.660;5.824;2022-09-17T18:13:24;101490.0;;;13.8;62.5
56594;BME280;42474;51.660;5.824;2022-09-17T18:18:34;101500.0;;;13.7;63.0
56594;BME280;42474;51.660;5.824;2022-09-17T18:23:24;101510.0;;;13.6;63.5
56594;BME280;42474;51.660;5.824;2022-09-17T18:28:25;101510.0;;;13.6;64.0
56594;BME280;42474;51.660;5.824;2022-09-17T18:33:26;101520.0;;;13.6;64.5
56594;BME280;42474;51.660;5.824;2022-09-17T18:38:24;101520.0;;;13.5;65.0
56594;BME280;42474;51.660;5.824;2022-09-17T18:43:24;101540.0;;;13.5;65.5
56594;BME280;42474;51.660;5.824;2022-09-17T18:48:24;101540.0;;;13.4;66.0
56594;BME280;42474;51.660;5.824;2022-09-17T18:53:24;101540.0;;;13.4;66.5
56594;BME280;42474;51.660;5.824;2022-09-17T18:58:24;101550.0;;;13.4;67.0
56594;BME280;42474;51.660;5.824;2022-09-17T19:03:24;101540.0;;;13.3;67.0
56594;BME280;42474;51.660;5.824;2022-09-17T19:08:24;101540.0;;;13.3;67.5
56594;BME280;42474;51.660;5.824;2022-09-17T19:13:25;101540.0;;;13.2;68.0
56594;BME280;42474;51.660;5.824;2022-09-17T19:18:24;101540.0;;;13.2;68.5
56594;BME280;42474;51.660;5.824;2022-09-17T19:23:24;101540.0;;;13.2;68.5
56594;BME280;42474;51.660;5.824;2022-09-17T19:28:24;101540.0;;;13.2;69.0
56594;BME280;42474;51.660;5.824;2022-09-17T19:33:24;101540.0;;;13.2;69.5
56594;BME280;42474;51.660;5.824;2022-09-17T19:38:24;101540.0;;;13.2;69.5
56594;BME280;42474;51.660;5.824;2022-09-17T19:43:24;101540.0;;;13.1;70.0
56594;BME280;42474;51.660;5.824;2022-09-17T19:48:24;101550.0;;;13.1;70.0
56594;BME280;42474;51.660;5.824;2022-09-17T19:53:24;101550.0;;;13.0;70.5
56594;BME280;42474;51.660;5.824;2022-09-17T19:58:24;101550.0;;;13.0;70.5
56594;BME280;42474;51.660;5.824;2022-09-17T20:03:24;101550.0;;;13.0;71.0
56594;BME280;42474;51.660;5.824;2022-09-17T20:08:24;101550.0;;;13.0;71.0
56594;BME280;42474;51.660;5.824;2022-09-17T20:13:24;101550.0;;;12.9;71.5
56594;BME280;42474;51.660;5.824;2022-09-17T20:18:24;101560.0;;;12.9;71.5
56594;BME280;42474;51.660;5.824;2022-09-17T20:23:27;101560.0;;;12.9;72.0
56594;BME280;42474;51.660;5.824;2022-09-17T20:28:24;101560.0;;;12.8;72.0
56594;BME280;42474;51.660;5.824;2022-09-17T20:33:24;101560.0;;;12.8;72.5
56594;BME280;42474;51.660;5.824;2022-09-17T20:38:24;101560.0;;;12.8;73.0
56594;BME280;42474;51.660;5.824;2022-09-17T20:43:24;101570.0;;;12.8;73.0
56594;BME280;42474;51.660;5.824;2022-09-17T20:48:24;101560.0;;;12.8;73.5
56594;BME280;42474;51.660;5.824;2022-09-17T20:53:24;101550.0;;;12.8;74.0
56594;BME280;42474;51.660;5.824;2022-09-17T20:58:25;101550.0;;;12.8;74.5
56594;BME280;42474;51.660;5.824;2022-09-17T21:03:24;101550.0;;;12.8;75.0
56594;BME280;42474;51.660;5.824;2022-09-17T21:08:25;101550.0;;;12.8;75.0
56594;BME280;42474;51.660;5.824;2022-09-17T21:13:24;101560.0;;;12.8;75.5
56594;BME280;42474;51.660;5.824;2022-09-17T21:18:24;101560.0;;;12.8;75.5
56594;BME280;42474;51.660;5.824;2022-09-17T21:23:25;101550.0;;;12.8;75.5
56594;BME280;42474;51.660;5.824;2022-09-17T21:28:24;101560.0;;;12.8;76.0
56594;BME280;42474;51.660;5.824;2022-09-17T21:33:24;101560.0;;;12.8;76.0
56594;BME280;42474;51.660;5.824;2022-09-17T21:38:24;101560.0;;;12.8;76.5
56594;BME280;42474;51.660;5.824;2022-09-17T21:43:25;101560.0;;;12.8;76.5
56594;BME280;42474;51.660;5.824;2022-09-17T21:48:24;101560.0;;;12.9;76.5
56594;BME280;42474;51.660;5.824;2022-09-17T21:53:24;101560.0;;;12.9;76.5
56594;BME280;42474;51.660;5.824;2022-09-17T21:58:24;101570.0;;;12.9;77.0
56594;BME280;42474;51.660;5.824;2022-09-17T22:03:24;101570.0;;;12.9;77.0
56594;BME280;42474;51.660;5.824;2022-09-17T22:08:24;101570.0;;;12.9;77.5
56594;BME280;42474;51.660;5.824;2022-09-17T22:13:24;101570.0;;;13.0;77.5
56594;BME280;42474;51.660;5.824;2022-09-17T22:18:24;101560.0;;;13.0;77.5
56594;BME280;42474;51.660;5.824;2022-09-17T22:23:25;101570.0;;;13.0;78.0
56594;BME280;42474;51.660;5.824;2022-09-17T22:28:24;101570.0;;;13.1;78.0
56594;BME280;42474;51.660;5.824;2022-09-17T22:33:24;101570.0;;;13.1;78.0
56594;BME280;42474;51.660;5.824;2022-09-17T22:38:24;101570.0;;;13.1;78.0
56594;BME280;42474;51.660;5.824;2022-09-17T22:43:24;101570.0;;;13.1;78.5
56594;BME280;42474;51.660;5.824;2022-09-17T22:48:24;101560.0;;;13.1;78.5
56594;BME280;42474;51.660;5.824;2022-09-17T22:53:24;101560.0;;;13.1;78.5
56594;BME280;42474;51.660;5.824;2022-09-17T22:58:24;101550.0;;;13.1;79.0
56594;BME280;42474;51.660;5.824;2022-09-17T23:03:25;101540.0;;;13.1;79.0
56594;BME280;42474;51.660;5.824;2022-09-17T23:08:24;101540.0;;;13.1;79.0
56594;BME280;42474;51.660;5.824;2022-09-17T23:13:24;101550.0;;;13.1;79.5
56594;BME280;42474;51.660;5.824;2022-09-17T23:18:24;101540.0;;;13.1;79.5
56594;BME280;42474;51.660;5.824;2022-09-17T23:23:24;101540.0;;;13.1;79.5
56594;BME280;42474;51.660;5.824;2022-09-17T23:28:24;101530.0;;;13.1;79.5
56594;BME280;42474;51.660;5.824;2022-09-17T23:33:24;101530.0;;;13.1;79.5
56594;BME280;42474;51.660;5.824;2022-09-17T23:38:24;101530.0;;;13.1;79.5
56594;BME280;42474;51.660;5.824;2022-09-17T23:43:24;101540.0;;;13.1;80.0
56594;BME280;42474;51.660;5.824;2022-09-17T23:48:24;101530.0;;;13.1;79.5
56594;BME280;42474;51.660;5.824;2022-09-17T23:53:24;101540.0;;;13.1;80.0
56594;BME280;42474;51.660;5.824;2022-09-17T23:58:24;101550.0;;;13.1;80.0
